sensor_id;sensor_type;location;lat;lon;timestamp;temperature;humidity
12115;DHT22;6121;49.810;6.418;2024-02-23T00:00:31;5.90;99.90
12115;DHT22;6121;49.810;6.418;2024-02-23T00:02:57;5.90;99.90
12115;DHT22;6121;49.810;6.418;2024-02-23T00:05:24;5.90;99.90
12115;DHT22;6121;49.810;6.418;2024-02-23T00:07:50;5.90;99.90
12115;DHT22;6121;49.810;6.418;2024-02-23T00:10:16;5.90;99.90
12115;DHT22;6121;49.810;6.418;2024-02-23T00:12:42;6.00;99.90
12115;DHT22;6121;49.810;6.418;2024-02-23T00:15:10;5.90;99.90
12115;DHT22;6121;49.810;6.418;2024-02-23T00:17:35;5.90;99.90
12115;DHT22;6121;49.810;6.418;2024-02-23T00:20:01;6.60;99.90
12115;DHT22;6121;49.810;6.418;2024-02-23T00:22:27;5.90;99.90
12115;DHT22;6121;49.810;6.418;2024-02-23T00:24:53;5.60;99.90
12115;DHT22;6121;49.810;6.418;2024-02-23T00:27:19;6.10;99.90
12115;DHT22;6121;49.810;6.418;2024-02-23T00:29:45;6.10;99.90
12115;DHT22;6121;49.810;6.418;2024-02-23T00:32:11;6.00;99.90
12115;DHT22;6121;49.810;6.418;2024-02-23T00:34:37;6.10;99.90
12115;DHT22;6121;49.810;6.418;2024-02-23T00:37:03;6.10;99.90
12115;DHT22;6121;49.810;6.418;2024-02-23T00:39:29;6.00;99.90
12115;DHT22;6121;49.810;6.418;2024-02-23T00:41:57;6.00;99.90
12115;DHT22;6121;49.810;6.418;2024-02-23T00:44:23;5.90;99.90
12115;DHT22;6121;49.810;6.418;2024-02-23T00:49:15;5.90;99.90
12115;DHT22;6121;49.810;6.418;2024-02-23T00:56:36;5.90;99.90
12115;DHT22;6121;49.810;6.418;2024-02-23T00:59:02;5.70;99.90
12115;DHT22;6121;49.810;6.418;2024-02-23T01:01:28;5.70;99.90
12115;DHT22;6121;49.810;6.418;2024-02-23T01:03:54;5.70;99.90
12115;DHT22;6121;49.810;6.418;2024-02-23T01:06:20;5.70;99.90
12115;DHT22;6121;49.810;6.418;2024-02-23T01:08:46;5.70;99.90
12115;DHT22;6121;49.810;6.418;2024-02-23T01:13:39;5.70;99.90
12115;DHT22;6121;49.810;6.418;2024-02-23T01:16:05;5.80;99.90
12115;DHT22;6121;49.810;6.418;2024-02-23T01:20:58;5.90;99.90
12115;DHT22;6121;49.810;6.418;2024-02-23T01:23:23;5.80;99.90
12115;DHT22;6121;49.810;6.418;2024-02-23T01:25:49;5.70;99.90
12115;DHT22;6121;49.810;6.418;2024-02-23T01:28:15;5.70;99.90
12115;DHT22;6121;49.810;6.418;2024-02-23T01:30:41;5.60;99.90
12115;DHT22;6121;49.810;6.418;2024-02-23T01:33:07;5.70;99.90
12115;DHT22;6121;49.810;6.418;2024-02-23T01:35:33;5.80;99.90
12115;DHT22;6121;49.810;6.418;2024-02-23T01:37:59;5.70;99.90
12115;DHT22;6121;49.810;6.418;2024-02-23T01:40:24;5.80;99.90
12115;DHT22;6121;49.810;6.418;2024-02-23T01:43:01;5.80;99.90
12115;DHT22;6121;49.810;6.418;2024-02-23T01:45:27;5.80;99.90
12115;DHT22;6121;49.810;6.418;2024-02-23T01:47:53;6.20;99.90
12115;DHT22;6121;49.810;6.418;2024-02-23T01:50:19;5.90;99.90
12115;DHT22;6121;49.810;6.418;2024-02-23T01:52:45;5.90;99.90
12115;DHT22;6121;49.810;6.418;2024-02-23T01:55:11;5.90;99.90
12115;DHT22;6121;49.810;6.418;2024-02-23T01:57:37;5.90;99.90
12115;DHT22;6121;49.810;6.418;2024-02-23T02:00:05;5.90;99.90
12115;DHT22;6121;49.810;6.418;2024-02-23T02:02:36;5.90;99.90
12115;DHT22;6121;49.810;6.418;2024-02-23T02:05:04;5.90;99.90
12115;DHT22;6121;49.810;6.418;2024-02-23T02:07:30;5.90;99.90
12115;DHT22;6121;49.810;6.418;2024-02-23T02:09:56;5.90;99.90
12115;DHT22;6121;49.810;6.418;2024-02-23T02:12:28;6.00;99.90
12115;DHT22;6121;49.810;6.418;2024-02-23T02:14:54;5.90;99.90
12115;DHT22;6121;49.810;6.418;2024-02-23T02:17:21;5.90;99.90
12115;DHT22;6121;49.810;6.418;2024-02-23T02:19:50;5.90;99.90
12115;DHT22;6121;49.810;6.418;2024-02-23T02:22:17;5.70;99.90
12115;DHT22;6121;49.810;6.418;2024-02-23T02:27:12;5.70;99.90
12115;DHT22;6121;49.810;6.418;2024-02-23T02:29:38;5.60;99.90
12115;DHT22;6121;49.810;6.418;2024-02-23T02:32:04;5.50;99.90
12115;DHT22;6121;49.810;6.418;2024-02-23T02:34:30;5.50;99.90
12115;DHT22;6121;49.810;6.418;2024-02-23T02:36:56;5.80;99.90
12115;DHT22;6121;49.810;6.418;2024-02-23T02:39:21;5.50;99.90
12115;DHT22;6121;49.810;6.418;2024-02-23T02:44:14;5.20;99.90
12115;DHT22;6121;49.810;6.418;2024-02-23T02:46:41;4.90;99.90
12115;DHT22;6121;49.810;6.418;2024-02-23T02:49:07;5.00;99.90
12115;DHT22;6121;49.810;6.418;2024-02-23T02:51:33;4.90;99.90
12115;DHT22;6121;49.810;6.418;2024-02-23T02:53:59;4.80;99.90
12115;DHT22;6121;49.810;6.418;2024-02-23T02:56:24;4.90;99.90
12115;DHT22;6121;49.810;6.418;2024-02-23T03:01:19;4.90;99.90
12115;DHT22;6121;49.810;6.418;2024-02-23T03:03:45;4.90;99.90
12115;DHT22;6121;49.810;6.418;2024-02-23T03:06:11;5.10;99.90
12115;DHT22;6121;49.810;6.418;2024-02-23T03:08:36;5.00;99.90
12115;DHT22;6121;49.810;6.418;2024-02-23T03:11:02;5.10;99.90
12115;DHT22;6121;49.810;6.418;2024-02-23T03:13:28;5.10;99.90
12115;DHT22;6121;49.810;6.418;2024-02-23T03:15:54;5.10;99.90
12115;DHT22;6121;49.810;6.418;2024-02-23T03:18:20;5.00;99.90
12115;DHT22;6121;49.810;6.418;2024-02-23T03:20:46;5.20;99.90
12115;DHT22;6121;49.810;6.418;2024-02-23T03:23:12;5.20;99.90
12115;DHT22;6121;49.810;6.418;2024-02-23T03:25:38;5.20;99.90
12115;DHT22;6121;49.810;6.418;2024-02-23T03:32:56;5.20;99.90
12115;DHT22;6121;49.810;6.418;2024-02-23T03:35:22;5.20;99.90
12115;DHT22;6121;49.810;6.418;2024-02-23T03:37:48;5.20;99.90
12115;DHT22;6121;49.810;6.418;2024-02-23T03:40:14;5.10;99.90
12115;DHT22;6121;49.810;6.418;2024-02-23T03:42:40;5.10;99.90
12115;DHT22;6121;49.810;6.418;2024-02-23T03:45:06;5.10;99.90
12115;DHT22;6121;49.810;6.418;2024-02-23T03:49:58;5.10;99.90
12115;DHT22;6121;49.810;6.418;2024-02-23T03:54:51;5.20;99.90
12115;DHT22;6121;49.810;6.418;2024-02-23T03:57:17;5.20;99.90
12115;DHT22;6121;49.810;6.418;2024-02-23T03:59:56;5.30;99.90
12115;DHT22;6121;49.810;6.418;2024-02-23T04:04:49;5.30;99.90
12115;DHT22;6121;49.810;6.418;2024-02-23T04:07:15;5.30;99.90
12115;DHT22;6121;49.810;6.418;2024-02-23T04:09:41;5.30;99.90
12115;DHT22;6121;49.810;6.418;2024-02-23T04:12:07;5.20;99.90
12115;DHT22;6121;49.810;6.418;2024-02-23T04:14:33;5.30;99.90
12115;DHT22;6121;49.810;6.418;2024-02-23T04:17:04;5.20;99.90
12115;DHT22;6121;49.810;6.418;2024-02-23T04:19:30;5.20;99.90
12115;DHT22;6121;49.810;6.418;2024-02-23T04:21:56;5.20;99.90
12115;DHT22;6121;49.810;6.418;2024-02-23T04:24:22;5.50;99.90
12115;DHT22;6121;49.810;6.418;2024-02-23T04:26:48;5.30;99.90
12115;DHT22;6121;49.810;6.418;2024-02-23T04:29:14;5.20;99.90
12115;DHT22;6121;49.810;6.418;2024-02-23T04:31:39;5.20;99.90
12115;DHT22;6121;49.810;6.418;2024-02-23T04:34:05;5.00;99.90
12115;DHT22;6121;49.810;6.418;2024-02-23T04:36:31;5.10;99.90
12115;DHT22;6121;49.810;6.418;2024-02-23T04:38:57;5.10;99.90
12115;DHT22;6121;49.810;6.418;2024-02-23T04:41:23;5.10;99.90
12115;DHT22;6121;49.810;6.418;2024-02-23T04:43:50;5.00;99.90
12115;DHT22;6121;49.810;6.418;2024-02-23T04:46:16;4.90;99.90
12115;DHT22;6121;49.810;6.418;2024-02-23T04:48:42;5.00;99.90
12115;DHT22;6121;49.810;6.418;2024-02-23T04:51:08;4.90;99.90
12115;DHT22;6121;49.810;6.418;2024-02-23T04:53:37;5.00;99.90
12115;DHT22;6121;49.810;6.418;2024-02-23T04:56:04;4.70;99.90
12115;DHT22;6121;49.810;6.418;2024-02-23T04:58:30;4.90;99.90
12115;DHT22;6121;49.810;6.418;2024-02-23T05:00:56;4.90;99.90
12115;DHT22;6121;49.810;6.418;2024-02-23T05:03:22;5.00;99.90
12115;DHT22;6121;49.810;6.418;2024-02-23T05:05:48;4.90;99.90
12115;DHT22;6121;49.810;6.418;2024-02-23T05:08:19;4.90;99.90
12115;DHT22;6121;49.810;6.418;2024-02-23T05:10:48;4.90;99.90
12115;DHT22;6121;49.810;6.418;2024-02-23T05:13:14;5.00;99.90
12115;DHT22;6121;49.810;6.418;2024-02-23T05:15:40;4.90;99.90
12115;DHT22;6121;49.810;6.418;2024-02-23T05:18:06;5.00;99.90
12115;DHT22;6121;49.810;6.418;2024-02-23T05:20:32;5.00;99.90
12115;DHT22;6121;49.810;6.418;2024-02-23T05:22:58;4.90;99.90
12115;DHT22;6121;49.810;6.418;2024-02-23T05:25:24;4.80;99.90
12115;DHT22;6121;49.810;6.418;2024-02-23T05:27:51;4.90;99.90
12115;DHT22;6121;49.810;6.418;2024-02-23T05:30:17;4.90;99.90
12115;DHT22;6121;49.810;6.418;2024-02-23T05:32:43;5.00;99.90
12115;DHT22;6121;49.810;6.418;2024-02-23T05:37:36;4.80;99.90
12115;DHT22;6121;49.810;6.418;2024-02-23T05:40:03;4.90;99.90
12115;DHT22;6121;49.810;6.418;2024-02-23T05:42:32;4.90;99.90
12115;DHT22;6121;49.810;6.418;2024-02-23T05:44:58;4.90;99.90
12115;DHT22;6121;49.810;6.418;2024-02-23T05:47:24;4.90;99.90
12115;DHT22;6121;49.810;6.418;2024-02-23T05:49:50;4.90;99.90
12115;DHT22;6121;49.810;6.418;2024-02-23T05:52:16;4.90;99.90
12115;DHT22;6121;49.810;6.418;2024-02-23T05:57:08;5.00;99.90
12115;DHT22;6121;49.810;6.418;2024-02-23T06:02:01;5.00;99.90
12115;DHT22;6121;49.810;6.418;2024-02-23T06:06:53;5.10;99.90
12115;DHT22;6121;49.810;6.418;2024-02-23T06:09:19;5.20;99.90
12115;DHT22;6121;49.810;6.418;2024-02-23T06:14:11;5.10;99.90
12115;DHT22;6121;49.810;6.418;2024-02-23T06:19:03;5.20;99.90
12115;DHT22;6121;49.810;6.418;2024-02-23T06:23:55;5.20;99.90
12115;DHT22;6121;49.810;6.418;2024-02-23T06:28:48;5.20;99.90
12115;DHT22;6121;49.810;6.418;2024-02-23T06:31:14;5.20;99.90
12115;DHT22;6121;49.810;6.418;2024-02-23T06:33:40;5.30;99.90
12115;DHT22;6121;49.810;6.418;2024-02-23T06:36:09;5.20;99.90
12115;DHT22;6121;49.810;6.418;2024-02-23T06:38:35;5.20;99.90
12115;DHT22;6121;49.810;6.418;2024-02-23T06:43:27;5.50;99.90
12115;DHT22;6121;49.810;6.418;2024-02-23T06:45:53;5.30;99.90
12115;DHT22;6121;49.810;6.418;2024-02-23T06:48:19;5.40;99.90
12115;DHT22;6121;49.810;6.418;2024-02-23T06:50:45;5.80;99.90
12115;DHT22;6121;49.810;6.418;2024-02-23T06:53:11;5.40;99.90
12115;DHT22;6121;49.810;6.418;2024-02-23T06:55:37;5.40;99.90
12115;DHT22;6121;49.810;6.418;2024-02-23T06:58:03;5.40;99.90
12115;DHT22;6121;49.810;6.418;2024-02-23T07:00:33;5.50;99.90
12115;DHT22;6121;49.810;6.418;2024-02-23T07:02:58;5.50;99.90
12115;DHT22;6121;49.810;6.418;2024-02-23T07:05:25;5.50;99.90
12115;DHT22;6121;49.810;6.418;2024-02-23T07:15:10;5.50;99.90
12115;DHT22;6121;49.810;6.418;2024-02-23T07:17:36;5.50;99.90
12115;DHT22;6121;49.810;6.418;2024-02-23T07:22:34;5.50;99.90
12115;DHT22;6121;49.810;6.418;2024-02-23T07:25:02;5.60;99.90
12115;DHT22;6121;49.810;6.418;2024-02-23T07:27:30;5.60;99.90
12115;DHT22;6121;49.810;6.418;2024-02-23T07:29:57;5.60;99.90
12115;DHT22;6121;49.810;6.418;2024-02-23T07:32:22;5.70;99.90
12115;DHT22;6121;49.810;6.418;2024-02-23T07:34:48;5.70;99.90
12115;DHT22;6121;49.810;6.418;2024-02-23T07:37:15;5.70;99.90
12115;DHT22;6121;49.810;6.418;2024-02-23T07:42:07;5.80;99.90
12115;DHT22;6121;49.810;6.418;2024-02-23T07:47:03;5.80;99.90
12115;DHT22;6121;49.810;6.418;2024-02-23T07:49:29;5.80;99.90
12115;DHT22;6121;49.810;6.418;2024-02-23T07:51:55;5.80;99.90
12115;DHT22;6121;49.810;6.418;2024-02-23T07:59:13;6.10;99.90
12115;DHT22;6121;49.810;6.418;2024-02-23T08:01:39;6.40;99.90
12115;DHT22;6121;49.810;6.418;2024-02-23T08:06:32;7.10;99.90
12115;DHT22;6121;49.810;6.418;2024-02-23T08:11:24;7.40;99.90
12115;DHT22;6121;49.810;6.418;2024-02-23T08:13:50;7.30;99.90
12115;DHT22;6121;49.810;6.418;2024-02-23T08:18:43;7.20;99.90
12115;DHT22;6121;49.810;6.418;2024-02-23T08:21:10;7.30;99.90
12115;DHT22;6121;49.810;6.418;2024-02-23T08:23:36;7.00;99.90
12115;DHT22;6121;49.810;6.418;2024-02-23T08:28:28;6.80;99.90
12115;DHT22;6121;49.810;6.418;2024-02-23T08:33:21;7.10;99.90
12115;DHT22;6121;49.810;6.418;2024-02-23T08:35:47;7.10;99.90
12115;DHT22;6121;49.810;6.418;2024-02-23T08:38:14;7.00;99.90
12115;DHT22;6121;49.810;6.418;2024-02-23T08:40:40;6.90;99.90
12115;DHT22;6121;49.810;6.418;2024-02-23T08:43:06;6.80;99.90
12115;DHT22;6121;49.810;6.418;2024-02-23T08:47:58;6.50;99.90
12115;DHT22;6121;49.810;6.418;2024-02-23T08:50:24;7.00;99.90
12115;DHT22;6121;49.810;6.418;2024-02-23T08:52:50;7.00;99.90
12115;DHT22;6121;49.810;6.418;2024-02-23T08:55:16;7.10;99.90
12115;DHT22;6121;49.810;6.418;2024-02-23T08:57:41;7.20;99.90
12115;DHT22;6121;49.810;6.418;2024-02-23T09:05:01;7.80;99.90
12115;DHT22;6121;49.810;6.418;2024-02-23T09:07:27;7.70;99.90
12115;DHT22;6121;49.810;6.418;2024-02-23T09:12:20;8.10;99.90
12115;DHT22;6121;49.810;6.418;2024-02-23T09:14:45;8.40;99.90
12115;DHT22;6121;49.810;6.418;2024-02-23T09:17:27;8.50;99.90
12115;DHT22;6121;49.810;6.418;2024-02-23T09:19:53;8.20;99.90
12115;DHT22;6121;49.810;6.418;2024-02-23T09:24:45;8.20;99.90
12115;DHT22;6121;49.810;6.418;2024-02-23T09:27:11;8.00;99.90
12115;DHT22;6121;49.810;6.418;2024-02-23T09:29:37;8.20;99.90
12115;DHT22;6121;49.810;6.418;2024-02-23T09:32:03;7.70;99.90
12115;DHT22;6121;49.810;6.418;2024-02-23T09:36:56;7.60;99.90
12115;DHT22;6121;49.810;6.418;2024-02-23T09:39:22;7.50;99.90
12115;DHT22;6121;49.810;6.418;2024-02-23T09:44:18;7.50;99.90
12115;DHT22;6121;49.810;6.418;2024-02-23T09:46:46;7.40;99.90
12115;DHT22;6121;49.810;6.418;2024-02-23T09:51:42;7.40;99.90
12115;DHT22;6121;49.810;6.418;2024-02-23T09:54:09;7.30;99.90
12115;DHT22;6121;49.810;6.418;2024-02-23T09:59:03;7.30;99.90
12115;DHT22;6121;49.810;6.418;2024-02-23T10:01:31;7.70;99.90
12115;DHT22;6121;49.810;6.418;2024-02-23T10:04:02;7.30;99.90
12115;DHT22;6121;49.810;6.418;2024-02-23T10:11:24;7.50;99.90
12115;DHT22;6121;49.810;6.418;2024-02-23T10:16:21;7.30;99.90
12115;DHT22;6121;49.810;6.418;2024-02-23T10:21:15;7.20;99.90
12115;DHT22;6121;49.810;6.418;2024-02-23T10:23:41;7.10;99.90
12115;DHT22;6121;49.810;6.418;2024-02-23T10:26:08;7.20;99.90
12115;DHT22;6121;49.810;6.418;2024-02-23T10:28:37;7.20;99.90
12115;DHT22;6121;49.810;6.418;2024-02-23T10:31:06;7.30;99.90
12115;DHT22;6121;49.810;6.418;2024-02-23T10:36:00;7.40;99.90
12115;DHT22;6121;49.810;6.418;2024-02-23T10:38:32;7.50;99.90
12115;DHT22;6121;49.810;6.418;2024-02-23T10:40:58;7.50;99.90
12115;DHT22;6121;49.810;6.418;2024-02-23T10:43:33;7.40;99.90
12115;DHT22;6121;49.810;6.418;2024-02-23T10:48:29;7.40;99.90
12115;DHT22;6121;49.810;6.418;2024-02-23T10:53:23;7.60;99.90
12115;DHT22;6121;49.810;6.418;2024-02-23T10:55:55;7.90;99.90
12115;DHT22;6121;49.810;6.418;2024-02-23T11:05:42;8.60;99.90
12115;DHT22;6121;49.810;6.418;2024-02-23T11:08:08;8.60;99.90
12115;DHT22;6121;49.810;6.418;2024-02-23T11:10:51;8.30;99.90
12115;DHT22;6121;49.810;6.418;2024-02-23T11:13:40;8.00;99.90
12115;DHT22;6121;49.810;6.418;2024-02-23T11:18:35;7.40;99.90
12115;DHT22;6121;49.810;6.418;2024-02-23T11:21:03;7.30;99.90
12115;DHT22;6121;49.810;6.418;2024-02-23T11:24:03;8.10;99.90
12115;DHT22;6121;49.810;6.418;2024-02-23T11:26:29;8.90;99.90
12115;DHT22;6121;49.810;6.418;2024-02-23T11:28:55;9.20;99.90
12115;DHT22;6121;49.810;6.418;2024-02-23T11:39:00;11.20;99.90
12115;DHT22;6121;49.810;6.418;2024-02-23T11:41:27;10.00;99.90
12115;DHT22;6121;49.810;6.418;2024-02-23T11:43:55;9.10;99.90
12115;DHT22;6121;49.810;6.418;2024-02-23T11:48:48;8.90;99.90
12115;DHT22;6121;49.810;6.418;2024-02-23T11:51:24;10.00;99.90
12115;DHT22;6121;49.810;6.418;2024-02-23T11:56:22;10.80;99.90
12115;DHT22;6121;49.810;6.418;2024-02-23T12:01:14;10.00;99.90
12115;DHT22;6121;49.810;6.418;2024-02-23T12:03:40;9.80;99.90
12115;DHT22;6121;49.810;6.418;2024-02-23T12:06:07;9.70;99.90
12115;DHT22;6121;49.810;6.418;2024-02-23T12:08:33;9.30;99.90
12115;DHT22;6121;49.810;6.418;2024-02-23T12:11:07;8.90;99.90
12115;DHT22;6121;49.810;6.418;2024-02-23T12:13:37;8.50;99.90
12115;DHT22;6121;49.810;6.418;2024-02-23T12:16:03;8.40;99.90
12115;DHT22;6121;49.810;6.418;2024-02-23T12:18:31;8.10;99.90
12115;DHT22;6121;49.810;6.418;2024-02-23T12:21:06;8.70;99.90
12115;DHT22;6121;49.810;6.418;2024-02-23T12:23:45;8.30;99.90
12115;DHT22;6121;49.810;6.418;2024-02-23T12:28:39;8.90;99.90
12115;DHT22;6121;49.810;6.418;2024-02-23T12:31:06;8.80;99.90
12115;DHT22;6121;49.810;6.418;2024-02-23T12:36:00;8.90;99.90
12115;DHT22;6121;49.810;6.418;2024-02-23T12:40:53;8.30;99.90
12115;DHT22;6121;49.810;6.418;2024-02-23T12:43:19;8.30;99.90
12115;DHT22;6121;49.810;6.418;2024-02-23T12:48:20;8.50;99.90
12115;DHT22;6121;49.810;6.418;2024-02-23T12:56:01;8.90;99.90
12115;DHT22;6121;49.810;6.418;2024-02-23T12:58:27;9.10;99.90
12115;DHT22;6121;49.810;6.418;2024-02-23T13:03:20;9.60;99.90
12115;DHT22;6121;49.810;6.418;2024-02-23T13:05:46;9.40;99.90
12115;DHT22;6121;49.810;6.418;2024-02-23T13:08:12;9.50;99.90
12115;DHT22;6121;49.810;6.418;2024-02-23T13:10:38;9.50;99.90
12115;DHT22;6121;49.810;6.418;2024-02-23T13:13:04;9.70;99.90
12115;DHT22;6121;49.810;6.418;2024-02-23T13:15:30;9.50;99.90
12115;DHT22;6121;49.810;6.418;2024-02-23T13:22:50;9.70;99.90
12115;DHT22;6121;49.810;6.418;2024-02-23T13:25:16;9.80;99.90
12115;DHT22;6121;49.810;6.418;2024-02-23T13:30:08;9.60;99.90
12115;DHT22;6121;49.810;6.418;2024-02-23T13:32:34;10.00;99.90
12115;DHT22;6121;49.810;6.418;2024-02-23T13:35:00;10.40;99.90
12115;DHT22;6121;49.810;6.418;2024-02-23T13:37:30;10.40;99.90
12115;DHT22;6121;49.810;6.418;2024-02-23T13:39:55;10.50;99.90
12115;DHT22;6121;49.810;6.418;2024-02-23T13:42:21;10.50;99.90
12115;DHT22;6121;49.810;6.418;2024-02-23T13:47:14;10.60;99.90
12115;DHT22;6121;49.810;6.418;2024-02-23T13:49:40;10.90;99.90
12115;DHT22;6121;49.810;6.418;2024-02-23T13:52:07;10.70;99.90
12115;DHT22;6121;49.810;6.418;2024-02-23T13:54:33;10.90;99.90
12115;DHT22;6121;49.810;6.418;2024-02-23T13:59:25;10.70;99.90
12115;DHT22;6121;49.810;6.418;2024-02-23T14:01:51;10.60;99.90
12115;DHT22;6121;49.810;6.418;2024-02-23T14:09:10;10.70;99.90
12115;DHT22;6121;49.810;6.418;2024-02-23T14:11:36;10.60;99.90
12115;DHT22;6121;49.810;6.418;2024-02-23T14:16:29;10.60;99.90
12115;DHT22;6121;49.810;6.418;2024-02-23T14:18:54;10.60;99.90
12115;DHT22;6121;49.810;6.418;2024-02-23T14:21:21;10.30;99.90
12115;DHT22;6121;49.810;6.418;2024-02-23T14:26:14;10.20;99.90
12115;DHT22;6121;49.810;6.418;2024-02-23T14:28:40;10.10;99.90
12115;DHT22;6121;49.810;6.418;2024-02-23T14:31:06;10.10;99.90
12115;DHT22;6121;49.810;6.418;2024-02-23T14:33:32;10.10;99.90
12115;DHT22;6121;49.810;6.418;2024-02-23T14:35:58;10.30;99.90
12115;DHT22;6121;49.810;6.418;2024-02-23T14:38:24;10.30;99.90
12115;DHT22;6121;49.810;6.418;2024-02-23T14:40:51;10.30;99.90
12115;DHT22;6121;49.810;6.418;2024-02-23T14:43:17;10.20;99.90
12115;DHT22;6121;49.810;6.418;2024-02-23T14:45:43;10.10;99.90
12115;DHT22;6121;49.810;6.418;2024-02-23T14:48:09;10.00;99.90
12115;DHT22;6121;49.810;6.418;2024-02-23T14:50:35;10.40;99.90
12115;DHT22;6121;49.810;6.418;2024-02-23T14:53:01;10.50;99.90
12115;DHT22;6121;49.810;6.418;2024-02-23T15:00:31;9.70;99.90
12115;DHT22;6121;49.810;6.418;2024-02-23T15:02:59;9.80;99.90
12115;DHT22;6121;49.810;6.418;2024-02-23T15:05:25;9.70;99.90
12115;DHT22;6121;49.810;6.418;2024-02-23T15:07:51;9.60;99.90
12115;DHT22;6121;49.810;6.418;2024-02-23T15:15:10;9.60;99.90
12115;DHT22;6121;49.810;6.418;2024-02-23T15:17:36;9.80;99.90
12115;DHT22;6121;49.810;6.418;2024-02-23T15:20:02;9.50;99.90
12115;DHT22;6121;49.810;6.418;2024-02-23T15:22:28;9.50;99.90
12115;DHT22;6121;49.810;6.418;2024-02-23T15:24:54;9.40;99.90
12115;DHT22;6121;49.810;6.418;2024-02-23T15:27:20;9.10;99.90
12115;DHT22;6121;49.810;6.418;2024-02-23T15:29:46;9.30;99.90
12115;DHT22;6121;49.810;6.418;2024-02-23T15:32:14;9.30;99.90
12115;DHT22;6121;49.810;6.418;2024-02-23T15:34:40;9.20;99.90
12115;DHT22;6121;49.810;6.418;2024-02-23T15:39:33;9.20;99.90
12115;DHT22;6121;49.810;6.418;2024-02-23T15:41:59;9.20;99.90
12115;DHT22;6121;49.810;6.418;2024-02-23T15:44:24;9.10;99.90
12115;DHT22;6121;49.810;6.418;2024-02-23T15:49:19;9.10;99.90
12115;DHT22;6121;49.810;6.418;2024-02-23T15:56:39;9.20;99.90
12115;DHT22;6121;49.810;6.418;2024-02-23T15:59:05;9.60;99.90
12115;DHT22;6121;49.810;6.418;2024-02-23T16:04:01;9.20;99.90
12115;DHT22;6121;49.810;6.418;2024-02-23T16:06:28;9.20;99.90
12115;DHT22;6121;49.810;6.418;2024-02-23T16:11:26;9.20;99.90
12115;DHT22;6121;49.810;6.418;2024-02-23T16:18:45;9.00;99.90
12115;DHT22;6121;49.810;6.418;2024-02-23T16:21:11;8.80;99.90
12115;DHT22;6121;49.810;6.418;2024-02-23T16:23:42;8.70;99.90
12115;DHT22;6121;49.810;6.418;2024-02-23T16:26:08;8.70;99.90
12115;DHT22;6121;49.810;6.418;2024-02-23T16:28:34;8.70;99.90
12115;DHT22;6121;49.810;6.418;2024-02-23T16:31:04;8.70;99.90
12115;DHT22;6121;49.810;6.418;2024-02-23T16:33:30;8.50;99.90
12115;DHT22;6121;49.810;6.418;2024-02-23T16:38:25;8.60;99.90
12115;DHT22;6121;49.810;6.418;2024-02-23T16:40:51;8.50;99.90
12115;DHT22;6121;49.810;6.418;2024-02-23T16:48:09;8.30;99.90
12115;DHT22;6121;49.810;6.418;2024-02-23T16:50:37;8.80;99.90
12115;DHT22;6121;49.810;6.418;2024-02-23T16:53:05;8.70;99.90
12115;DHT22;6121;49.810;6.418;2024-02-23T17:02:53;8.10;99.90
12115;DHT22;6121;49.810;6.418;2024-02-23T17:05:22;8.00;99.90
12115;DHT22;6121;49.810;6.418;2024-02-23T17:07:51;7.90;99.90
12115;DHT22;6121;49.810;6.418;2024-02-23T17:10:17;8.00;99.90
12115;DHT22;6121;49.810;6.418;2024-02-23T17:12:43;7.90;99.90
12115;DHT22;6121;49.810;6.418;2024-02-23T17:15:14;7.90;99.90
12115;DHT22;6121;49.810;6.418;2024-02-23T17:17:41;7.90;99.90
12115;DHT22;6121;49.810;6.418;2024-02-23T17:22:34;7.70;99.90
12115;DHT22;6121;49.810;6.418;2024-02-23T17:25:00;7.70;99.90
12115;DHT22;6121;49.810;6.418;2024-02-23T17:34:45;6.70;99.90
12115;DHT22;6121;49.810;6.418;2024-02-23T17:37:11;6.70;99.90
12115;DHT22;6121;49.810;6.418;2024-02-23T17:39:42;6.60;99.90
12115;DHT22;6121;49.810;6.418;2024-02-23T17:44:34;6.50;99.90
12115;DHT22;6121;49.810;6.418;2024-02-23T17:47:01;6.60;99.90
12115;DHT22;6121;49.810;6.418;2024-02-23T17:49:27;6.50;99.90
12115;DHT22;6121;49.810;6.418;2024-02-23T17:54:19;6.30;99.90
12115;DHT22;6121;49.810;6.418;2024-02-23T17:56:45;6.20;99.90
12115;DHT22;6121;49.810;6.418;2024-02-23T17:59:11;6.20;99.90
12115;DHT22;6121;49.810;6.418;2024-02-23T18:01:44;6.30;99.90
12115;DHT22;6121;49.810;6.418;2024-02-23T18:04:10;6.40;99.90
12115;DHT22;6121;49.810;6.418;2024-02-23T18:09:05;6.30;99.90
12115;DHT22;6121;49.810;6.418;2024-02-23T18:11:31;6.60;99.90
12115;DHT22;6121;49.810;6.418;2024-02-23T18:13:57;6.30;99.90
12115;DHT22;6121;49.810;6.418;2024-02-23T18:16:23;6.30;99.90
12115;DHT22;6121;49.810;6.418;2024-02-23T18:18:52;6.20;99.90
12115;DHT22;6121;49.810;6.418;2024-02-23T18:21:18;6.30;99.90
12115;DHT22;6121;49.810;6.418;2024-02-23T18:23:44;6.20;99.90
12115;DHT22;6121;49.810;6.418;2024-02-23T18:28:40;5.90;99.90
12115;DHT22;6121;49.810;6.418;2024-02-23T18:31:07;6.10;99.90
12115;DHT22;6121;49.810;6.418;2024-02-23T18:33:33;6.00;99.90
12115;DHT22;6121;49.810;6.418;2024-02-23T18:43:19;5.80;99.90
12115;DHT22;6121;49.810;6.418;2024-02-23T18:45:45;5.80;99.90
12115;DHT22;6121;49.810;6.418;2024-02-23T18:48:11;5.70;99.90
12115;DHT22;6121;49.810;6.418;2024-02-23T18:50:37;5.70;99.90
12115;DHT22;6121;49.810;6.418;2024-02-23T18:53:03;5.60;99.90
12115;DHT22;6121;49.810;6.418;2024-02-23T18:55:31;5.60;99.90
12115;DHT22;6121;49.810;6.418;2024-02-23T18:58:05;5.60;99.90
12115;DHT22;6121;49.810;6.418;2024-02-23T19:03:02;5.60;99.90
12115;DHT22;6121;49.810;6.418;2024-02-23T19:12:49;5.70;99.90
12115;DHT22;6121;49.810;6.418;2024-02-23T19:15:15;5.80;99.90
12115;DHT22;6121;49.810;6.418;2024-02-23T19:17:41;5.30;99.90
12115;DHT22;6121;49.810;6.418;2024-02-23T19:20:08;5.60;99.90
12115;DHT22;6121;49.810;6.418;2024-02-23T19:22:35;5.70;99.90
12115;DHT22;6121;49.810;6.418;2024-02-23T19:25:01;5.70;99.90
12115;DHT22;6121;49.810;6.418;2024-02-23T19:27:27;5.60;99.90
12115;DHT22;6121;49.810;6.418;2024-02-23T19:39:41;5.80;99.90
12115;DHT22;6121;49.810;6.418;2024-02-23T19:42:07;5.80;99.90
12115;DHT22;6121;49.810;6.418;2024-02-23T19:44:32;5.80;99.90
12115;DHT22;6121;49.810;6.418;2024-02-23T19:46:58;5.80;99.90
12115;DHT22;6121;49.810;6.418;2024-02-23T19:51:53;5.80;99.90
12115;DHT22;6121;49.810;6.418;2024-02-23T19:54:19;5.90;99.90
12115;DHT22;6121;49.810;6.418;2024-02-23T19:56:45;5.80;99.90
12115;DHT22;6121;49.810;6.418;2024-02-23T19:59:11;5.90;99.90
12115;DHT22;6121;49.810;6.418;2024-02-23T20:01:36;5.80;99.90
12115;DHT22;6121;49.810;6.418;2024-02-23T20:04:02;5.90;99.90
12115;DHT22;6121;49.810;6.418;2024-02-23T20:06:28;5.90;99.90
12115;DHT22;6121;49.810;6.418;2024-02-23T20:08:54;5.80;99.90
12115;DHT22;6121;49.810;6.418;2024-02-23T20:13:46;5.90;99.90
12115;DHT22;6121;49.810;6.418;2024-02-23T20:16:12;6.00;99.90
12115;DHT22;6121;49.810;6.418;2024-02-23T20:18:38;5.80;99.90
12115;DHT22;6121;49.810;6.418;2024-02-23T20:21:04;5.80;99.90
12115;DHT22;6121;49.810;6.418;2024-02-23T20:30:52;5.70;99.90
12115;DHT22;6121;49.810;6.418;2024-02-23T20:33:22;5.80;99.90
12115;DHT22;6121;49.810;6.418;2024-02-23T20:38:15;5.70;99.90
12115;DHT22;6121;49.810;6.418;2024-02-23T20:40:41;5.70;99.90
12115;DHT22;6121;49.810;6.418;2024-02-23T20:43:06;5.60;99.90
12115;DHT22;6121;49.810;6.418;2024-02-23T20:45:32;5.60;99.90
12115;DHT22;6121;49.810;6.418;2024-02-23T20:50:24;5.70;99.90
12115;DHT22;6121;49.810;6.418;2024-02-23T20:52:50;5.70;99.90